Time;durP1;ratioP1;P1;durP2;ratioP2;P2;SDS_P1;SDS_P2;PMS_P1;PMS_P2;Temp;Humidity;BMP_temperature;BMP_pressure;BME280_temperature;BME280_humidity;BME280_pressure;Samples;Min_cycle;Max_cycle;Signal;HPM_P1;HPM_P2
2022/11/27 00:00:49;;;;;;;9.63;6.55;;;;;;;;;;6184462;23;20725;-86
2022/11/27 00:03:16;;;;;;;5.97;5.38;;;;;;;;;;6184157;23;20188;-85
2022/11/27 00:05:53;;;;;;;6.25;5.07;;;;;;;;;;6183972;23;20257;-85
2022/11/27 00:08:21;;;;;;;6.72;6.03;;;;;;;;;;6185437;23;20702;-83
2022/11/27 00:10:48;;;;;;;9.27;5.38;;;;;;;;;;6186566;23;20174;-84
2022/11/27 00:13:16;;;;;;;8.27;6.45;;;;;;;;;;6185714;23;20704;-85
2022/11/27 00:15:44;;;;;;;9.30;6.05;;;;;;;;;;6186860;23;20197;-83
2022/11/27 00:18:12;;;;;;;6.70;6.07;;;;;;;;;;6187014;23;20236;-84
2022/11/27 00:20:40;;;;;;;5.65;4.82;;;;;;;;;;6186657;23;20253;-85
2022/11/27 00:23:07;;;;;;;12.38;5.22;;;;;;;;;;6186468;23;20225;-83
2022/11/27 00:25:35;;;;;;;7.82;5.25;;;;;;;;;;6184998;23;20305;-85
2022/11/27 00:28:03;;;;;;;7.55;5.53;;;;;;;;;;6185461;23;20270;-84
2022/11/27 00:30:30;;;;;;;5.95;5.05;;;;;;;;;;6186030;23;20178;-84
2022/11/27 00:32:59;;;;;;;8.80;5.57;;;;;;;;;;6186533;23;20178;-84
2022/11/27 00:35:26;;;;;;;6.63;6.03;;;;;;;;;;6186328;23;20170;-84
2022/11/27 00:37:54;;;;;;;9.45;5.88;;;;;;;;;;6210859;23;20205;-84
2022/11/27 00:40:21;;;;;;;6.20;5.50;;;;;;;;;;6217559;23;20230;-84
2022/11/27 00:42:49;;;;;;;7.03;6.32;;;;;;;;;;6217856;23;20230;-84
2022/11/27 00:45:16;;;;;;;6.30;5.53;;;;;;;;;;6216616;23;20209;-84
2022/11/27 00:47:44;;;;;;;7.95;6.30;;;;;;;;;;6217477;23;20202;-82
2022/11/27 00:50:13;;;;;;;8.20;6.75;;;;;;;;;;6217047;23;20205;-83
2022/11/27 00:52:40;;;;;;;6.93;6.22;;;;;;;;;;6216993;23;20249;-83
2022/11/27 00:55:09;;;;;;;7.07;6.43;;;;;;;;;;6217317;23;20206;-84
2022/11/27 00:57:37;;;;;;;8.75;6.95;;;;;;;;;;6216850;23;20746;-85
2022/11/27 01:00:06;;;;;;;9.55;7.45;;;;;;;;;;6216122;23;20253;-85
2022/11/27 01:02:34;;;;;;;6.55;5.95;;;;;;;;;;6216109;23;20231;-85
2022/11/27 01:05:02;;;;;;;8.32;7.43;;;;;;;;;;6215917;23;20181;-84
2022/11/27 01:07:31;;;;;;;7.43;6.72;;;;;;;;;;6216162;23;20229;-86
2022/11/27 01:09:58;;;;;;;9.10;6.90;;;;;;;;;;6216850;23;20620;-83
2022/11/27 01:12:25;;;;;;;7.20;5.82;;;;;;;;;;6216560;23;20216;-84
2022/11/27 01:14:53;;;;;;;8.40;6.20;;;;;;;;;;6215971;23;20252;-85
2022/11/27 01:17:20;;;;;;;10.20;7.15;;;;;;;;;;6216019;23;20771;-83
2022/11/27 01:19:48;;;;;;;13.82;7.13;;;;;;;;;;6215910;23;20732;-84
2022/11/27 01:22:15;;;;;;;9.25;6.88;;;;;;;;;;6215552;23;20235;-84
2022/11/27 01:24:45;;;;;;;8.05;7.22;;;;;;;;;;6215477;23;20553;-84
2022/11/27 01:27:13;;;;;;;5.93;5.32;;;;;;;;;;6215627;23;20698;-83
2022/11/27 01:29:41;;;;;;;7.68;6.68;;;;;;;;;;6215211;23;20177;-84
2022/11/27 01:32:08;;;;;;;12.05;6.80;;;;;;;;;;6215772;23;20232;-83
2022/11/27 01:34:36;;;;;;;8.82;6.38;;;;;;;;;;6215543;23;20300;-85
2022/11/27 01:37:03;;;;;;;8.50;6.57;;;;;;;;;;6215491;23;20200;-85
2022/11/27 01:39:31;;;;;;;9.60;7.57;;;;;;;;;;6215530;23;20636;-84
2022/11/27 01:42:00;;;;;;;9.05;6.95;;;;;;;;;;6215994;23;20205;-85
2022/11/27 01:44:49;;;;;;;9.55;7.25;;;;;;;;;;6214899;23;20173;-84
2022/11/27 01:47:37;;;;;;;7.38;6.68;;;;;;;;;;6215233;23;20197;-84
2022/11/27 01:50:19;;;;;;;8.90;6.00;;;;;;;;;;6215784;23;20190;-82
2022/11/27 01:52:50;;;;;;;6.43;5.75;;;;;;;;;;6215576;23;20162;-83
2022/11/27 01:55:28;;;;;;;8.68;6.97;;;;;;;;;;6215170;23;20190;-85
2022/11/27 01:58:00;;;;;;;8.88;6.05;;;;;;;;;;6215188;23;20221;-84
2022/11/27 02:00:28;;;;;;;8.07;6.40;;;;;;;;;;6215117;23;20236;-84
2022/11/27 02:02:56;;;;;;;8.02;6.05;;;;;;;;;;6215401;23;20304;-85
2022/11/27 02:05:27;;;;;;;9.32;6.45;;;;;;;;;;6215270;23;20189;-85
2022/11/27 02:07:56;;;;;;;8.30;5.97;;;;;;;;;;6215286;23;20197;-83
2022/11/27 02:10:30;;;;;;;5.70;5.20;;;;;;;;;;6215247;23;20277;-84
2022/11/27 02:13:03;;;;;;;8.07;5.68;;;;;;;;;;6215467;23;20261;-84
2022/11/27 02:15:35;;;;;;;12.23;7.57;;;;;;;;;;6215627;23;20212;-84
2022/11/27 02:18:11;;;;;;;15.13;7.25;;;;;;;;;;6214930;23;20269;-84
2022/11/27 02:20:50;;;;;;;7.80;6.18;;;;;;;;;;6215187;23;20154;-84
2022/11/27 02:23:44;;;;;;;12.27;7.07;;;;;;;;;;6215285;23;20236;-84
2022/11/27 02:26:28;;;;;;;8.88;6.05;;;;;;;;;;6210213;23;20257;-82
2022/11/27 02:29:01;;;;;;;7.28;5.63;;;;;;;;;;6214581;23;20201;-85
2022/11/27 02:31:37;;;;;;;9.00;7.03;;;;;;;;;;6214746;23;20186;-85
2022/11/27 02:34:17;;;;;;;7.10;5.68;;;;;;;;;;6214705;23;20602;-84
2022/11/27 02:36:50;;;;;;;7.38;5.75;;;;;;;;;;6215043;23;20631;-83
2022/11/27 02:39:22;;;;;;;9.27;5.60;;;;;;;;;;6214796;23;20181;-85
2022/11/27 02:41:54;;;;;;;10.55;6.50;;;;;;;;;;6215147;23;20583;-83
2022/11/27 02:44:24;;;;;;;7.72;6.22;;;;;;;;;;6215234;23;20162;-84
2022/11/27 02:46:52;;;;;;;8.65;7.28;;;;;;;;;;6215113;23;20166;-84
2022/11/27 02:49:21;;;;;;;7.75;5.55;;;;;;;;;;6214337;23;20276;-84
2022/11/27 02:51:53;;;;;;;8.75;5.90;;;;;;;;;;6214758;23;20234;-84
2022/11/27 02:54:25;;;;;;;7.82;5.50;;;;;;;;;;6215036;23;20198;-83
2022/11/27 02:56:53;;;;;;;8.98;6.70;;;;;;;;;;6215086;23;20242;-84
2022/11/27 02:59:24;;;;;;;12.75;8.65;;;;;;;;;;6214394;23;20245;-83
2022/11/27 03:01:55;;;;;;;8.77;6.88;;;;;;;;;;6214992;23;20252;-84
2022/11/27 03:04:27;;;;;;;9.02;5.85;;;;;;;;;;6214653;23;20189;-84
2022/11/27 03:06:58;;;;;;;7.57;6.10;;;;;;;;;;6215111;23;20500;-84
2022/11/27 03:09:29;;;;;;;11.90;8.18;;;;;;;;;;6214632;23;20188;-84
2022/11/27 03:11:56;;;;;;;7.93;5.95;;;;;;;;;;6214216;23;20252;-84
2022/11/27 03:14:25;;;;;;;8.10;6.28;;;;;;;;;;6215156;23;20260;-84
2022/11/27 03:17:02;;;;;;;9.55;7.43;;;;;;;;;;6214784;23;20256;-84
2022/11/27 03:19:34;;;;;;;8.02;6.97;;;;;;;;;;6214195;23;20240;-83
2022/11/27 03:22:03;;;;;;;6.97;6.05;;;;;;;;;;6214305;23;20189;-83
2022/11/27 03:24:34;;;;;;;7.43;6.55;;;;;;;;;;6214526;23;20209;-84
2022/11/27 03:27:03;;;;;;;9.38;6.97;;;;;;;;;;6214633;23;20162;-84
2022/11/27 03:29:36;;;;;;;11.32;7.72;;;;;;;;;;6214029;23;20532;-84
2022/11/27 03:32:05;;;;;;;10.65;7.72;;;;;;;;;;6215196;23;20189;-87
2022/11/27 03:34:33;;;;;;;11.05;6.15;;;;;;;;;;6215115;23;20567;-84
2022/11/27 03:37:00;;;;;;;14.55;6.88;;;;;;;;;;6214726;23;20256;-85
2022/11/27 03:39:28;;;;;;;9.18;7.13;;;;;;;;;;6214562;23;20201;-85
2022/11/27 03:42:03;;;;;;;7.32;5.78;;;;;;;;;;6215108;23;20252;-85
2022/11/27 03:44:39;;;;;;;8.48;5.63;;;;;;;;;;6214274;23;20296;-84
2022/11/27 03:47:16;;;;;;;8.07;6.40;;;;;;;;;;6214668;23;20168;-84
2022/11/27 03:49:57;;;;;;;7.90;6.30;;;;;;;;;;6214230;23;20264;-84
2022/11/27 03:52:30;;;;;;;6.55;5.80;;;;;;;;;;6214133;23;20240;-84
2022/11/27 03:55:01;;;;;;;7.40;6.07;;;;;;;;;;6214617;23;20241;-85
2022/11/27 03:57:33;;;;;;;7.55;6.82;;;;;;;;;;6214408;23;20223;-85
2022/11/27 04:00:07;;;;;;;7.38;6.55;;;;;;;;;;6213942;23;20667;-84
2022/11/27 04:02:42;;;;;;;6.05;5.47;;;;;;;;;;6214179;23;20550;-85
2022/11/27 04:05:10;;;;;;;7.90;6.32;;;;;;;;;;6214692;23;20316;-86
2022/11/27 04:07:38;;;;;;;13.05;6.15;;;;;;;;;;6214039;23;20276;-83
2022/11/27 04:10:07;;;;;;;9.25;5.90;;;;;;;;;;6214194;23;20574;-85
2022/11/27 04:12:35;;;;;;;9.27;6.00;;;;;;;;;;6214525;23;20648;-82
2022/11/27 04:15:04;;;;;;;6.88;5.63;;;;;;;;;;6214087;23;20174;-83
2022/11/27 04:17:32;;;;;;;7.38;5.97;;;;;;;;;;6214471;23;20198;-86
2022/11/27 04:19:59;;;;;;;7.45;5.75;;;;;;;;;;6213927;23;20662;-85
2022/11/27 04:22:27;;;;;;;8.35;5.15;;;;;;;;;;6213937;23;20644;-85
2022/11/27 04:24:54;;;;;;;6.47;5.70;;;;;;;;;;6214284;23;20283;-84
2022/11/27 04:27:22;;;;;;;8.38;5.70;;;;;;;;;;6214124;23;20225;-84
2022/11/27 04:29:49;;;;;;;7.25;6.55;;;;;;;;;;6213877;23;20273;-85
2022/11/27 04:32:18;;;;;;;7.43;6.15;;;;;;;;;;6214027;23;20255;-83
2022/11/27 04:34:45;;;;;;;9.82;6.93;;;;;;;;;;6213988;23;20253;-84
2022/11/27 04:37:13;;;;;;;8.15;5.78;;;;;;;;;;6213127;23;20283;-85
2022/11/27 04:39:40;;;;;;;7.80;6.60;;;;;;;;;;6214014;23;20248;-85
2022/11/27 04:42:08;;;;;;;8.63;6.03;;;;;;;;;;6214389;23;20271;-84
2022/11/27 04:44:36;;;;;;;6.90;6.20;;;;;;;;;;6213575;23;20253;-85
2022/11/27 04:47:03;;;;;;;8.38;5.57;;;;;;;;;;6213545;23;20181;-85
2022/11/27 04:49:32;;;;;;;24.90;6.32;;;;;;;;;;6212819;23;20257;-84
2022/11/27 04:51:59;;;;;;;7.82;4.85;;;;;;;;;;6214203;23;20208;-82
2022/11/27 04:54:27;;;;;;;7.72;5.78;;;;;;;;;;6214617;23;20252;-84
2022/11/27 04:56:54;;;;;;;7.40;5.93;;;;;;;;;;6215653;23;20257;-85
2022/11/27 04:59:23;;;;;;;8.52;5.30;;;;;;;;;;6215237;23;20185;-83
2022/11/27 05:01:50;;;;;;;6.68;5.20;;;;;;;;;;6216008;23;20209;-83
2022/11/27 05:04:18;;;;;;;8.50;5.00;;;;;;;;;;6215406;23;20252;-85
2022/11/27 05:06:47;;;;;;;7.13;5.30;;;;;;;;;;6215768;23;20200;-84
2022/11/27 05:09:14;;;;;;;9.43;6.07;;;;;;;;;;6215439;23;20256;-82
2022/11/27 05:11:42;;;;;;;8.93;5.63;;;;;;;;;;6215455;23;20216;-86
2022/11/27 05:14:15;;;;;;;7.95;7.13;;;;;;;;;;6215150;23;20202;-86
2022/11/27 05:16:44;;;;;;;6.88;5.60;;;;;;;;;;6215867;23;20562;-84
2022/11/27 05:19:13;;;;;;;5.78;5.05;;;;;;;;;;6215633;23;20225;-84
2022/11/27 05:21:41;;;;;;;6.20;4.20;;;;;;;;;;6215757;23;20542;-84
2022/11/27 05:24:10;;;;;;;7.45;5.80;;;;;;;;;;6215251;23;20173;-83
2022/11/27 05:26:39;;;;;;;5.18;4.68;;;;;;;;;;6215595;23;20181;-84
2022/11/27 05:29:06;;;;;;;8.32;5.00;;;;;;;;;;6197068;22;20290;-88
2022/11/27 05:31:35;;;;;;;9.85;5.18;;;;;;;;;;6185060;23;20252;-85
2022/11/27 05:34:02;;;;;;;6.40;5.20;;;;;;;;;;6185647;23;20182;-86
2022/11/27 05:36:31;;;;;;;6.30;5.03;;;;;;;;;;6186305;23;20274;-86
2022/11/27 05:38:59;;;;;;;5.30;4.80;;;;;;;;;;6186596;23;20264;-87
2022/11/27 05:41:28;;;;;;;6.07;5.47;;;;;;;;;;6186849;23;20209;-88
2022/11/27 05:43:56;;;;;;;6.28;4.97;;;;;;;;;;6187724;23;20213;-85
2022/11/27 05:46:24;;;;;;;6.07;5.40;;;;;;;;;;6186759;23;20222;-86
2022/11/27 05:48:51;;;;;;;8.02;5.63;;;;;;;;;;6187146;23;20257;-85
2022/11/27 05:51:19;;;;;;;8.70;5.85;;;;;;;;;;6186396;23;20206;-87
2022/11/27 05:53:47;;;;;;;8.02;6.07;;;;;;;;;;6187006;23;20179;-86
2022/11/27 05:56:17;;;;;;;8.75;7.47;;;;;;;;;;6188029;23;20237;-86
2022/11/27 05:58:48;;;;;;;7.53;6.32;;;;;;;;;;6187142;23;20257;-85
2022/11/27 06:01:17;;;;;;;7.63;6.82;;;;;;;;;;6188026;23;20270;-84
2022/11/27 06:03:45;;;;;;;8.85;7.40;;;;;;;;;;6187612;23;20252;-86
2022/11/27 06:06:16;;;;;;;8.25;6.07;;;;;;;;;;6186779;23;20226;-85
2022/11/27 06:08:44;;;;;;;11.48;6.72;;;;;;;;;;6187833;23;20234;-86
2022/11/27 06:11:14;;;;;;;12.80;7.47;;;;;;;;;;6187372;23;20226;-84
2022/11/27 06:13:42;;;;;;;9.57;7.43;;;;;;;;;;6188171;23;20194;-85
2022/11/27 06:16:14;;;;;;;7.40;6.15;;;;;;;;;;6188087;23;20595;-86
2022/11/27 06:18:42;;;;;;;9.18;7.07;;;;;;;;;;6187649;23;20171;-85
2022/11/27 06:21:12;;;;;;;12.77;6.68;;;;;;;;;;6187109;23;20253;-85
2022/11/27 06:23:40;;;;;;;10.32;6.10;;;;;;;;;;6187583;23;20202;-87
2022/11/27 06:26:13;;;;;;;9.27;7.78;;;;;;;;;;6187068;23;20199;-86
2022/11/27 06:28:40;;;;;;;7.63;6.15;;;;;;;;;;6198601;23;20216;-84
2022/11/27 06:31:11;;;;;;;9.30;5.82;;;;;;;;;;6217037;23;20229;-87
2022/11/27 06:33:39;;;;;;;8.07;6.45;;;;;;;;;;6217448;23;20189;-86
2022/11/27 06:36:08;;;;;;;6.93;5.53;;;;;;;;;;6217526;23;20246;-85
2022/11/27 06:38:36;;;;;;;8.38;7.32;;;;;;;;;;6217627;23;20209;-87
2022/11/27 06:41:05;;;;;;;9.25;5.97;;;;;;;;;;6217831;23;20182;-88
2022/11/27 06:43:33;;;;;;;7.70;5.20;;;;;;;;;;6217144;23;20178;-85
2022/11/27 06:46:02;;;;;;;6.85;5.45;;;;;;;;;;6216787;23;20208;-85
2022/11/27 06:48:31;;;;;;;6.75;6.03;;;;;;;;;;6216943;23;20704;-85
2022/11/27 06:51:00;;;;;;;8.38;6.28;;;;;;;;;;6216028;23;20225;-85
2022/11/27 06:53:28;;;;;;;7.38;6.10;;;;;;;;;;6216062;23;20209;-85
2022/11/27 06:55:56;;;;;;;7.22;5.53;;;;;;;;;;6216612;23;20242;-85
2022/11/27 06:58:24;;;;;;;7.35;4.88;;;;;;;;;;6217447;23;20182;-86
2022/11/27 07:00:58;;;;;;;10.65;6.70;;;;;;;;;;6215882;23;20312;-86
2022/11/27 07:03:26;;;;;;;7.15;6.45;;;;;;;;;;6215745;23;20165;-86
2022/11/27 07:05:55;;;;;;;5.63;5.13;;;;;;;;;;6215410;23;20256;-86
2022/11/27 07:08:22;;;;;;;7.60;5.25;;;;;;;;;;6216033;23;20213;-85
2022/11/27 07:10:50;;;;;;;6.75;5.13;;;;;;;;;;6215527;23;20252;-87
2022/11/27 07:13:17;;;;;;;8.10;6.07;;;;;;;;;;6216591;23;20209;-87
2022/11/27 07:15:45;;;;;;;7.25;5.65;;;;;;;;;;6214842;23;20217;-87
2022/11/27 07:18:13;;;;;;;10.30;6.05;;;;;;;;;;6216275;23;20177;-86
2022/11/27 07:20:40;;;;;;;6.88;6.18;;;;;;;;;;6216429;23;20227;-86
2022/11/27 07:23:09;;;;;;;7.25;5.80;;;;;;;;;;6215902;23;20210;-85
2022/11/27 07:25:38;;;;;;;7.68;6.65;;;;;;;;;;6216472;23;20558;-85
2022/11/27 07:28:05;;;;;;;7.65;6.85;;;;;;;;;;6216538;23;20647;-84
2022/11/27 07:30:33;;;;;;;7.72;6.55;;;;;;;;;;6216181;23;20190;-87
2022/11/27 07:33:00;;;;;;;7.05;6.40;;;;;;;;;;6215880;23;20162;-86
2022/11/27 07:35:28;;;;;;;7.93;6.05;;;;;;;;;;6215247;23;20245;-86
2022/11/27 07:37:55;;;;;;;8.52;6.65;;;;;;;;;;6214762;23;20225;-85
2022/11/27 07:40:24;;;;;;;7.35;6.13;;;;;;;;;;6215712;23;20255;-87
2022/11/27 07:42:52;;;;;;;7.43;6.40;;;;;;;;;;6215245;23;20281;-85
2022/11/27 07:45:19;;;;;;;7.43;6.25;;;;;;;;;;6215137;23;20216;-86
2022/11/27 07:47:47;;;;;;;9.38;7.22;;;;;;;;;;6214289;23;20241;-86
2022/11/27 07:50:14;;;;;;;9.38;7.55;;;;;;;;;;6215912;23;20228;-86
2022/11/27 07:52:42;;;;;;;7.63;6.45;;;;;;;;;;6215347;23;20220;-84
2022/11/27 07:55:10;;;;;;;8.43;5.95;;;;;;;;;;6214824;23;20205;-87
2022/11/27 07:57:41;;;;;;;8.00;5.90;;;;;;;;;;6214951;23;20264;-86
2022/11/27 08:00:10;;;;;;;9.23;5.72;;;;;;;;;;6215280;23;20581;-85
2022/11/27 08:02:38;;;;;;;6.55;5.88;;;;;;;;;;6216018;23;20161;-86
2022/11/27 08:05:06;;;;;;;7.43;5.78;;;;;;;;;;6217296;23;20208;-87
2022/11/27 08:07:34;;;;;;;8.18;6.00;;;;;;;;;;6215472;23;20337;-87
2022/11/27 08:10:01;;;;;;;7.20;5.65;;;;;;;;;;6214108;23;20252;-86
2022/11/27 08:12:29;;;;;;;6.20;5.57;;;;;;;;;;6215874;23;20574;-88
2022/11/27 08:14:58;;;;;;;8.63;5.70;;;;;;;;;;6215366;23;20563;-84
2022/11/27 08:17:25;;;;;;;5.63;5.13;;;;;;;;;;6215490;23;20252;-88
2022/11/27 08:19:53;;;;;;;7.72;5.65;;;;;;;;;;6215071;23;20217;-85
2022/11/27 08:22:20;;;;;;;6.53;5.00;;;;;;;;;;6215005;23;20201;-85
2022/11/27 08:24:48;;;;;;;6.57;4.78;;;;;;;;;;6215261;23;20272;-87
2022/11/27 08:27:16;;;;;;;9.70;6.43;;;;;;;;;;6215029;23;20260;-87
2022/11/27 08:29:43;;;;;;;9.68;6.97;;;;;;;;;;6215493;23;20182;-86
2022/11/27 08:32:13;;;;;;;8.63;6.55;;;;;;;;;;6217684;23;20193;-84
2022/11/27 08:34:40;;;;;;;6.72;5.97;;;;;;;;;;6218385;23;20571;-85
2022/11/27 08:37:08;;;;;;;7.53;5.70;;;;;;;;;;6218635;23;20240;-85
2022/11/27 08:39:36;;;;;;;7.93;6.00;;;;;;;;;;6218247;23;20198;-85
2022/11/27 08:42:03;;;;;;;6.28;5.63;;;;;;;;;;6217164;23;20202;-86
2022/11/27 08:44:31;;;;;;;8.40;6.82;;;;;;;;;;6216265;23;20182;-87
2022/11/27 08:46:58;;;;;;;7.05;6.35;;;;;;;;;;6216511;23;20201;-87
2022/11/27 08:49:27;;;;;;;8.73;6.45;;;;;;;;;;6217010;23;20225;-86
2022/11/27 08:51:55;;;;;;;9.20;7.43;;;;;;;;;;6216748;23;20585;-87
2022/11/27 08:54:23;;;;;;;8.98;6.40;;;;;;;;;;6216939;23;20593;-86
2022/11/27 08:56:52;;;;;;;8.95;6.97;;;;;;;;;;6217039;23;20718;-85
2022/11/27 08:59:19;;;;;;;8.65;7.40;;;;;;;;;;6218964;23;20197;-84
2022/11/27 09:01:47;;;;;;;9.18;7.25;;;;;;;;;;6217690;23;20643;-87
2022/11/27 09:04:14;;;;;;;9.95;7.50;;;;;;;;;;6216651;23;20178;-86
2022/11/27 09:06:43;;;;;;;7.43;6.38;;;;;;;;;;6218205;23;20268;-85
2022/11/27 09:09:11;;;;;;;8.50;6.65;;;;;;;;;;6217516;23;20177;-85
2022/11/27 09:11:39;;;;;;;8.98;7.38;;;;;;;;;;6216421;23;20229;-84
2022/11/27 09:14:07;;;;;;;7.80;7.00;;;;;;;;;;6218000;23;20605;-84
2022/11/27 09:16:35;;;;;;;7.60;6.38;;;;;;;;;;6218683;23;20193;-86
2022/11/27 09:19:03;;;;;;;8.35;6.38;;;;;;;;;;6218126;23;20629;-86
2022/11/27 09:21:31;;;;;;;10.30;6.93;;;;;;;;;;6218083;23;20224;-85
2022/11/27 09:24:02;;;;;;;6.80;6.15;;;;;;;;;;6218456;23;20178;-86
2022/11/27 09:26:30;;;;;;;8.07;6.80;;;;;;;;;;6218177;23;20197;-86
2022/11/27 09:28:59;;;;;;;8.90;7.00;;;;;;;;;;6216632;23;20248;-86
2022/11/27 09:31:26;;;;;;;10.10;6.65;;;;;;;;;;6217327;23;20277;-86
2022/11/27 09:33:54;;;;;;;8.45;7.03;;;;;;;;;;6217532;23;20167;-87
2022/11/27 09:36:24;;;;;;;10.70;6.30;;;;;;;;;;6216904;23;20264;-86
2022/11/27 09:38:52;;;;;;;8.43;5.97;;;;;;;;;;6218225;23;20181;-86
2022/11/27 09:41:41;;;;;;;9.35;6.25;;;;;;;;;;6217765;23;20645;-85
2022/11/27 09:44:28;;;;;;;10.88;6.93;;;;;;;;;;6218521;23;20244;-84
2022/11/27 09:46:58;;;;;;;10.43;7.53;;;;;;;;;;6208867;23;20237;-84
2022/11/27 09:49:31;;;;;;;7.30;5.95;;;;;;;;;;6187756;23;20198;-84
2022/11/27 09:52:04;;;;;;;8.20;6.88;;;;;;;;;;6187222;23;20273;-84
2022/11/27 09:54:37;;;;;;;10.10;6.55;;;;;;;;;;6187060;23;20163;-81
2022/11/27 09:57:06;;;;;;;6.72;5.93;;;;;;;;;;6187917;23;20234;-87
2022/11/27 09:59:39;;;;;;;6.57;5.60;;;;;;;;;;6187722;23;20197;-86
2022/11/27 10:02:17;;;;;;;8.40;5.18;;;;;;;;;;6188629;23;20245;-86
2022/11/27 10:04:45;;;;;;;6.90;5.03;;;;;;;;;;6188364;23;20166;-87
2022/11/27 10:07:27;;;;;;;6.32;5.72;;;;;;;;;;6188597;23;20273;-86
2022/11/27 10:10:25;;;;;;;5.45;4.70;;;;;;;;;;6188149;23;20208;-87
2022/11/27 10:13:03;;;;;;;7.00;5.80;;;;;;;;;;6188828;23;20214;-87
2022/11/27 10:15:38;;;;;;;6.07;5.47;;;;;;;;;;6187947;23;20556;-85
2022/11/27 10:18:13;;;;;;;6.60;5.82;;;;;;;;;;6187617;23;20198;-86
2022/11/27 10:20:45;;;;;;;7.13;5.55;;;;;;;;;;6187845;23;20530;-86
2022/11/27 10:23:23;;;;;;;9.68;6.82;;;;;;;;;;6189162;23;20241;-87
2022/11/27 10:26:04;;;;;;;6.93;5.38;;;;;;;;;;6187907;23;20162;-87
2022/11/27 10:28:40;;;;;;;6.47;5.10;;;;;;;;;;6188505;23;20206;-89
2022/11/27 10:31:13;;;;;;;5.50;5.00;;;;;;;;;;6188564;23;20158;-87
2022/11/27 10:33:49;;;;;;;4.85;4.15;;;;;;;;;;6189380;23;20598;-87
2022/11/27 10:36:21;;;;;;;6.45;4.75;;;;;;;;;;6190680;23;20178;-87
2022/11/27 10:38:49;;;;;;;5.30;4.78;;;;;;;;;;6190056;23;20599;-87
2022/11/27 10:41:21;;;;;;;6.00;5.30;;;;;;;;;;6189080;23;20170;-86
2022/11/27 10:43:54;;;;;;;8.05;4.65;;;;;;;;;;6189381;23;20194;-87
2022/11/27 10:46:27;;;;;;;5.25;4.43;;;;;;;;;;6188955;23;20190;-87
2022/11/27 10:48:55;;;;;;;5.15;4.47;;;;;;;;;;6218006;23;20273;-87
2022/11/27 10:51:28;;;;;;;7.53;4.65;;;;;;;;;;6218286;23;20173;-86
2022/11/27 10:53:56;;;;;;;5.78;4.28;;;;;;;;;;6217310;23;20261;-87
2022/11/27 10:56:45;;;;;;;5.60;4.43;;;;;;;;;;6216931;23;20241;-87
2022/11/27 10:59:18;;;;;;;5.03;4.55;;;;;;;;;;6217406;23;20205;-87
2022/11/27 11:04:37;;;;;;;5.97;5.43;;;;;;;;;;5133086;27;20279;-87
2022/11/27 11:07:04;;;;;;;5.28;4.78;;;;;;;;;;5134363;28;20780;-85
2022/11/27 11:09:33;;;;;;;6.22;4.90;;;;;;;;;;5132175;28;20237;-86
2022/11/27 11:12:08;;;;;;;5.35;4.25;;;;;;;;;;5133646;27;20210;-86
2022/11/27 11:14:36;;;;;;;7.60;4.53;;;;;;;;;;5133330;27;20225;-86
2022/11/27 11:17:16;;;;;;;5.10;4.60;;;;;;;;;;5133577;27;20195;-86
2022/11/27 11:19:45;;;;;;;4.53;4.10;;;;;;;;;;5133928;27;20227;-87
2022/11/27 11:22:15;;;;;;;6.57;4.57;;;;;;;;;;5133077;27;20203;-86
2022/11/27 11:24:48;;;;;;;6.50;4.43;;;;;;;;;;5132941;27;20278;-85
2022/11/27 11:27:20;;;;;;;9.82;4.10;;;;;;;;;;5132448;27;20207;-87
2022/11/27 11:29:50;;;;;;;7.63;4.35;;;;;;;;;;5118560;22;20235;-87
2022/11/27 11:32:24;;;;;;;6.78;4.68;;;;;;;;;;5068677;28;20205;-87
2022/11/27 11:34:56;;;;;;;4.65;4.20;;;;;;;;;;5069181;28;20276;-89
2022/11/27 11:37:26;;;;;;;6.28;4.55;;;;;;;;;;5069162;28;20571;-88
2022/11/27 11:39:57;;;;;;;6.38;4.53;;;;;;;;;;5068993;28;20274;-87
2022/11/27 11:42:28;;;;;;;4.93;4.40;;;;;;;;;;5068623;28;20204;-86
2022/11/27 11:45:02;;;;;;;7.43;4.72;;;;;;;;;;5083136;28;20200;-85
2022/11/27 11:47:30;;;;;;;5.80;3.97;;;;;;;;;;5088634;28;20202;-87
2022/11/27 11:50:00;;;;;;;4.88;4.22;;;;;;;;;;5088311;28;20307;-86
2022/11/27 11:52:50;;;;;;;4.80;3.97;;;;;;;;;;5088825;28;20768;-87
2022/11/27 11:55:22;;;;;;;4.70;3.85;;;;;;;;;;5088588;28;20577;-86
2022/11/27 11:58:21;;;;;;;4.30;3.65;;;;;;;;;;5088281;28;20207;-86
2022/11/27 12:00:51;;;;;;;7.22;4.72;;;;;;;;;;5049969;28;20234;-87
2022/11/27 12:03:38;;;;;;;6.80;4.95;;;;;;;;;;5048504;28;20344;-87
2022/11/27 12:06:36;;;;;;;5.63;4.55;;;;;;;;;;5048514;28;20188;-86
2022/11/27 12:09:25;;;;;;;6.50;5.68;;;;;;;;;;5048162;28;20221;-86
2022/11/27 12:11:59;;;;;;;5.68;4.57;;;;;;;;;;5048237;28;20197;-86
2022/11/27 12:14:43;;;;;;;5.10;4.60;;;;;;;;;;5043111;28;20746;-88
2022/11/27 12:17:26;;;;;;;8.05;4.70;;;;;;;;;;5035082;28;20206;-88
2022/11/27 12:20:14;;;;;;;6.22;4.82;;;;;;;;;;5034942;28;20265;-88
2022/11/27 12:23:23;;;;;;;9.23;5.10;;;;;;;;;;5034927;28;20273;-88
2022/11/27 12:25:57;;;;;;;7.00;4.68;;;;;;;;;;5013790;28;20344;-90
2022/11/27 12:28:53;;;;;;;5.15;4.05;;;;;;;;;;5034517;28;20288;-87
2022/11/27 12:31:33;;;;;;;4.63;4.22;;;;;;;;;;5034760;28;20289;-87
2022/11/27 12:34:04;;;;;;;5.75;4.57;;;;;;;;;;5033807;28;20691;-85
2022/11/27 12:36:49;;;;;;;3.97;3.65;;;;;;;;;;5034037;28;20702;-87
2022/11/27 12:39:25;;;;;;;5.20;3.95;;;;;;;;;;5033460;28;20236;-87
2022/11/27 12:42:15;;;;;;;8.57;5.00;;;;;;;;;;5034015;28;20221;-87
2022/11/27 12:44:53;;;;;;;5.60;4.03;;;;;;;;;;5032155;28;20226;-89
2022/11/27 12:47:26;;;;;;;5.28;4.40;;;;;;;;;;5034252;28;20238;-87
2022/11/27 12:49:59;;;;;;;4.80;4.18;;;;;;;;;;5034606;28;20222;-86
2022/11/27 12:52:31;;;;;;;5.88;4.30;;;;;;;;;;5034942;28;20280;-89
2022/11/27 12:55:05;;;;;;;4.45;4.00;;;;;;;;;;5034742;28;20192;-88
2022/11/27 12:57:39;;;;;;;4.60;3.58;;;;;;;;;;5034647;28;20644;-86
2022/11/27 13:00:14;;;;;;;4.43;4.03;;;;;;;;;;5043503;28;20257;-87
2022/11/27 13:02:45;;;;;;;4.07;3.53;;;;;;;;;;5053839;28;20288;-88
2022/11/27 13:05:15;;;;;;;3.38;3.00;;;;;;;;;;5053893;28;20229;-87
2022/11/27 13:07:47;;;;;;;4.28;3.35;;;;;;;;;;5055923;28;20335;-86
2022/11/27 13:10:26;;;;;;;3.75;3.22;;;;;;;;;;5073677;28;20225;-88
2022/11/27 13:13:03;;;;;;;5.50;3.60;;;;;;;;;;5073707;28;20242;-88
2022/11/27 13:15:35;;;;;;;5.00;3.88;;;;;;;;;;5073683;28;20197;-88
2022/11/27 13:18:12;;;;;;;4.05;3.65;;;;;;;;;;5073152;28;20265;-88
2022/11/27 13:20:40;;;;;;;3.88;3.38;;;;;;;;;;5073665;28;20308;-88
2022/11/27 13:23:08;;;;;;;3.88;2.72;;;;;;;;;;5073615;28;20638;-88
2022/11/27 13:25:43;;;;;;;3.78;3.38;;;;;;;;;;5072904;28;20220;-88
2022/11/27 13:28:21;;;;;;;4.40;3.83;;;;;;;;;;5072788;28;20204;-88
2022/11/27 13:30:50;;;;;;;4.05;3.25;;;;;;;;;;5056962;28;20253;-90
2022/11/27 13:33:32;;;;;;;3.47;3.17;;;;;;;;;;5053558;28;20655;-88
2022/11/27 13:36:02;;;;;;;7.20;3.88;;;;;;;;;;5053370;28;20700;-88
2022/11/27 13:38:32;;;;;;;5.50;3.72;;;;;;;;;;5053160;28;20376;-88
2022/11/27 13:41:05;;;;;;;4.75;4.00;;;;;;;;;;5053095;28;20205;-87
2022/11/27 13:43:41;;;;;;;5.07;3.58;;;;;;;;;;5053413;28;20206;-87
2022/11/27 13:46:14;;;;;;;5.07;3.70;;;;;;;;;;5053124;28;20213;-88
2022/11/27 13:48:51;;;;;;;3.85;3.03;;;;;;;;;;5052617;28;20212;-87
2022/11/27 13:51:48;;;;;;;3.85;2.90;;;;;;;;;;5053098;28;20267;-87
2022/11/27 13:54:20;;;;;;;3.70;3.28;;;;;;;;;;5053371;28;20281;-87
2022/11/27 13:56:59;;;;;;;5.13;3.17;;;;;;;;;;5052992;28;20197;-88
2022/11/27 13:59:44;;;;;;;6.00;3.47;;;;;;;;;;5052192;28;20229;-88
2022/11/27 14:02:20;;;;;;;8.30;3.33;;;;;;;;;;5053172;28;20236;-87
2022/11/27 14:05:06;;;;;;;3.67;3.35;;;;;;;;;;5050013;28;20225;-87
2022/11/27 14:07:50;;;;;;;3.60;2.97;;;;;;;;;;5052636;28;20340;-88
2022/11/27 14:10:31;;;;;;;4.00;3.60;;;;;;;;;;5052289;28;20745;-88
2022/11/27 14:13:25;;;;;;;5.32;3.20;;;;;;;;;;5052417;28;20284;-88
2022/11/27 14:16:28;;;;;;;3.15;2.85;;;;;;;;;;5052864;28;20208;-88
2022/11/27 14:19:02;;;;;;;3.08;2.60;;;;;;;;;;5052738;28;20248;-88
2022/11/27 14:21:44;;;;;;;4.15;2.88;;;;;;;;;;5052488;28;20259;-87
2022/11/27 14:24:39;;;;;;;4.05;3.00;;;;;;;;;;5052402;28;20213;-87
2022/11/27 14:27:22;;;;;;;5.13;3.20;;;;;;;;;;5052686;28;20209;-87
2022/11/27 14:29:53;;;;;;;4.43;3.42;;;;;;;;;;5052344;28;20230;-88
2022/11/27 14:32:22;;;;;;;6.88;3.05;;;;;;;;;;5052673;28;20205;-87
2022/11/27 14:34:50;;;;;;;3.42;3.13;;;;;;;;;;5053986;28;20193;-86
2022/11/27 14:37:24;;;;;;;6.85;3.55;;;;;;;;;;5055244;28;20206;-86
2022/11/27 14:39:52;;;;;;;5.47;3.67;;;;;;;;;;5053761;28;20221;-86
2022/11/27 14:42:23;;;;;;;8.07;4.13;;;;;;;;;;5053586;28;20284;-86
2022/11/27 14:45:10;;;;;;;7.78;4.07;;;;;;;;;;5052957;28;20252;-85
2022/11/27 14:47:40;;;;;;;4.65;3.55;;;;;;;;;;5051853;28;20271;-87
2022/11/27 14:50:10;;;;;;;5.15;3.50;;;;;;;;;;5051790;28;20265;-87
2022/11/27 14:52:39;;;;;;;3.42;3.13;;;;;;;;;;5052084;28;20209;-86
2022/11/27 14:55:18;;;;;;;5.75;3.97;;;;;;;;;;5051595;28;20866;-86
2022/11/27 14:57:50;;;;;;;6.95;4.00;;;;;;;;;;5052182;28;20224;-87
2022/11/27 15:00:31;;;;;;;5.07;3.90;;;;;;;;;;5051760;28;20257;-86
2022/11/27 15:03:18;;;;;;;4.25;3.45;;;;;;;;;;5050522;28;20267;-85
2022/11/27 15:05:53;;;;;;;3.63;2.85;;;;;;;;;;5051267;28;20685;-87
2022/11/27 15:08:46;;;;;;;3.80;3.15;;;;;;;;;;5051247;28;20201;-86
2022/11/27 15:11:18;;;;;;;3.67;3.30;;;;;;;;;;5051309;28;20300;-87
2022/11/27 15:14:00;;;;;;;3.30;3.00;;;;;;;;;;5051785;28;20229;-86